Time;durP1;ratioP1;P1;durP2;ratioP2;P2;SDS_P1;SDS_P2;PMS_P1;PMS_P2;Temp;Humidity;BMP_temperature;BMP_pressure;BME280_temperature;BME280_humidity;BME280_pressure;Samples;Min_cycle;Max_cycle;Signal;HPM_P1;HPM_P2
2023/07/22 00:00:26;;;;;;;;;21.50;18.00;;;;;;;;111202;1243;45119;-57
2023/07/22 00:03:13;;;;;;;;;19.00;17.67;;;;;;;;111257;1243;49321;-58
2023/07/22 00:05:41;;;;;;;;;21.00;20.00;;;;;;;;111295;1243;48741;-57
2023/07/22 00:08:08;;;;;;;;;22.00;19.00;;;;;;;;111253;1243;54172;-55
2023/07/22 00:10:40;;;;;;;;;18.00;16.00;;;;;;;;111265;1239;44136;-57
2023/07/22 00:13:07;;;;;;;;;17.00;15.50;;;;;;;;111278;1243;50572;-56
2023/07/22 00:15:34;;;;;;;;;17.33;16.00;;;;;;;;111297;1238;49423;-56
2023/07/22 00:18:02;;;;;;;;;13.75;12.75;;;;;;;;111240;1239;54052;-55
2023/07/22 00:20:29;;;;;;;;;14.00;13.00;;;;;;;;111404;1243;44786;-56
2023/07/22 00:22:56;;;;;;;;;13.00;12.00;;;;;;;;111206;1240;49225;-56
2023/07/22 00:25:24;;;;;;;;;15.50;14.00;;;;;;;;111233;1239;49518;-57
2023/07/22 00:27:51;;;;;;;;;13.00;12.00;;;;;;;;111232;1243;53411;-57
2023/07/22 00:30:18;;;;;;;;;13.25;12.00;;;;;;;;111258;1239;44961;-57
2023/07/22 00:32:45;;;;;;;;;11.00;11.00;;;;;;;;111258;1238;49675;-54
2023/07/22 00:35:13;;;;;;;;;14.00;13.00;;;;;;;;111204;1239;49634;-55
2023/07/22 00:37:41;;;;;;;;;14.00;13.00;;;;;;;;111224;1240;53656;-58
2023/07/22 00:40:11;;;;;;;;;13.75;12.50;;;;;;;;111211;1243;44892;-57
2023/07/22 00:42:39;;;;;;;;;13.00;12.00;;;;;;;;111226;1241;48765;-57
2023/07/22 00:45:07;;;;;;;;;12.00;12.00;;;;;;;;111286;1240;49938;-58
2023/07/22 00:47:35;;;;;;;;;14.50;13.75;;;;;;;;111381;1243;54538;-57
2023/07/22 00:50:04;;;;;;;;;16.67;15.33;;;;;;;;111235;1243;44622;-57
2023/07/22 00:52:31;;;;;;;;;15.67;14.67;;;;;;;;111300;1243;49639;-58
2023/07/22 00:54:59;;;;;;;;;16.00;15.00;;;;;;;;111257;1240;48937;-57
2023/07/22 00:57:27;;;;;;;;;19.67;18.00;;;;;;;;111269;1243;53938;-58
2023/07/22 00:59:54;;;;;;;;;15.00;13.50;;;;;;;;111261;1243;45272;-57
2023/07/22 01:02:23;;;;;;;;;15.75;13.50;;;;;;;;111216;1244;49025;-57
2023/07/22 01:04:51;;;;;;;;;18.25;17.00;;;;;;;;111233;1241;48977;-52
2023/07/22 01:07:19;;;;;;;;;16.75;16.00;;;;;;;;111234;1243;53469;-56
2023/07/22 01:09:46;;;;;;;;;16.00;15.00;;;;;;;;111319;1240;44716;-57
2023/07/22 01:12:14;;;;;;;;;17.50;16.75;;;;;;;;111261;1238;49897;-57
2023/07/22 01:14:42;;;;;;;;;18.00;17.00;;;;;;;;111308;1238;48515;-56
2023/07/22 01:17:10;;;;;;;;;19.75;18.00;;;;;;;;111272;1243;53815;-57
2023/07/22 01:19:39;;;;;;;;;21.75;18.50;;;;;;;;111241;1244;44624;-56
2023/07/22 01:22:10;;;;;;;;;20.00;18.33;;;;;;;;111225;1239;49536;-55
2023/07/22 01:24:38;;;;;;;;;18.33;18.00;;;;;;;;111230;1243;49287;-54
2023/07/22 01:27:09;;;;;;;;;17.50;17.00;;;;;;;;111233;1244;53968;-56
2023/07/22 01:29:37;;;;;;;;;17.75;17.00;;;;;;;;111346;1240;44740;-54
2023/07/22 01:32:05;;;;;;;;;20.00;18.50;;;;;;;;111277;1239;49615;-55
2023/07/22 01:34:32;;;;;;;;;20.00;18.25;;;;;;;;111222;1244;48845;-55
2023/07/22 01:36:59;;;;;;;;;21.00;19.00;;;;;;;;111234;1243;53820;-56
2023/07/22 01:39:27;;;;;;;;;19.75;18.00;;;;;;;;111198;1242;45106;-54
2023/07/22 01:41:54;;;;;;;;;17.50;17.00;;;;;;;;111268;1243;49968;-54
2023/07/22 01:44:22;;;;;;;;;16.67;15.67;;;;;;;;111232;1243;48825;-56
2023/07/22 01:46:49;;;;;;;;;19.00;17.75;;;;;;;;111212;1243;53564;-55
2023/07/22 01:49:16;;;;;;;;;17.67;16.67;;;;;;;;111201;1243;44869;-56
2023/07/22 01:51:44;;;;;;;;;16.25;15.00;;;;;;;;111243;1243;50396;-57
2023/07/22 01:54:12;;;;;;;;;16.67;16.00;;;;;;;;111249;1240;49449;-56
2023/07/22 01:56:39;;;;;;;;;18.75;18.25;;;;;;;;111215;1240;54618;-58
2023/07/22 01:59:06;;;;;;;;;19.67;17.67;;;;;;;;111272;1240;44478;-56
2023/07/22 02:01:34;;;;;;;;;18.75;18.00;;;;;;;;111199;1244;49517;-57
2023/07/22 02:04:03;;;;;;;;;17.75;16.25;;;;;;;;111275;1243;49405;-58
2023/07/22 02:06:30;;;;;;;;;18.00;17.00;;;;;;;;111253;1243;54674;-55
2023/07/22 02:08:57;;;;;;;;;21.00;18.00;;;;;;;;111326;1240;45290;-56
2023/07/22 02:11:25;;;;;;;;;19.33;18.00;;;;;;;;111207;1243;48877;-57
2023/07/22 02:13:52;;;;;;;;;18.00;17.33;;;;;;;;111219;1243;49736;-56
2023/07/22 02:16:19;;;;;;;;;18.00;17.00;;;;;;;;111243;1242;54669;-55
2023/07/22 02:18:47;;;;;;;;;20.50;17.00;;;;;;;;111202;1240;44625;-56
2023/07/22 02:21:14;;;;;;;;;14.75;14.50;;;;;;;;111256;1239;50318;-56
2023/07/22 02:23:42;;;;;;;;;18.33;16.00;;;;;;;;111397;1243;49009;-55
2023/07/22 02:26:10;;;;;;;;;17.00;15.75;;;;;;;;111263;1239;53963;-56
2023/07/22 02:28:37;;;;;;;;;15.00;14.00;;;;;;;;111198;1240;45135;-57
2023/07/22 02:31:06;;;;;;;;;15.75;14.75;;;;;;;;111187;1241;48936;-56
2023/07/22 02:33:34;;;;;;;;;18.33;16.33;;;;;;;;111299;1243;49517;-57
2023/07/22 02:36:01;;;;;;;;;16.50;14.75;;;;;;;;111225;1239;54957;-57
2023/07/22 02:38:29;;;;;;;;;15.75;14.75;;;;;;;;111262;1238;45774;-53
2023/07/22 02:41:03;;;;;;;;;15.50;15.00;;;;;;;;111216;1243;49547;-55
2023/07/22 02:43:30;;;;;;;;;14.00;12.75;;;;;;;;111256;1243;48797;-55
2023/07/22 02:45:59;;;;;;;;;13.50;12.75;;;;;;;;111306;1243;53886;-56
2023/07/22 02:48:27;;;;;;;;;18.33;16.33;;;;;;;;111292;1238;45438;-55
2023/07/22 02:50:55;;;;;;;;;16.00;15.00;;;;;;;;111289;1243;49341;-55
2023/07/22 02:53:22;;;;;;;;;14.00;12.25;;;;;;;;111249;1240;49065;-54
2023/07/22 02:55:49;;;;;;;;;15.00;14.33;;;;;;;;111281;1243;53831;-55
2023/07/22 02:58:17;;;;;;;;;15.00;14.25;;;;;;;;111249;1243;44950;-56
2023/07/22 03:00:44;;;;;;;;;14.00;12.25;;;;;;;;111218;1239;49701;-58
2023/07/22 03:03:11;;;;;;;;;13.75;12.25;;;;;;;;111343;1243;48582;-56
2023/07/22 03:05:38;;;;;;;;;14.75;14.00;;;;;;;;111241;1239;54045;-58
2023/07/22 03:08:06;;;;;;;;;18.33;17.00;;;;;;;;111300;1240;44320;-58
2023/07/22 03:10:34;;;;;;;;;16.00;15.00;;;;;;;;111211;1240;49890;-56
2023/07/22 03:13:03;;;;;;;;;15.00;14.00;;;;;;;;111169;1243;49328;-55
2023/07/22 03:15:30;;;;;;;;;15.50;14.50;;;;;;;;111204;1242;55009;-56
2023/07/22 03:17:59;;;;;;;;;16.00;14.67;;;;;;;;111204;1238;45105;-56
2023/07/22 03:20:26;;;;;;;;;15.25;14.75;;;;;;;;111282;1242;50123;-57
2023/07/22 03:22:54;;;;;;;;;17.50;16.25;;;;;;;;111206;1240;49172;-55
2023/07/22 03:25:21;;;;;;;;;18.50;16.50;;;;;;;;111255;1248;53529;-57
2023/07/22 03:27:48;;;;;;;;;18.50;17.50;;;;;;;;111270;1240;45282;-55
2023/07/22 03:30:17;;;;;;;;;17.00;16.50;;;;;;;;111226;1243;49973;-54
2023/07/22 03:32:47;;;;;;;;;16.00;15.00;;;;;;;;111322;1241;49761;-53
2023/07/22 03:35:14;;;;;;;;;19.67;18.00;;;;;;;;111294;1241;53758;-55
2023/07/22 03:37:42;;;;;;;;;21.50;19.75;;;;;;;;111206;1238;45480;-54
2023/07/22 03:40:19;;;;;;;;;17.00;16.75;;;;;;;;111256;1243;49511;-53
2023/07/22 03:42:48;;;;;;;;;18.33;17.00;;;;;;;;111346;1242;50032;-54
2023/07/22 03:45:15;;;;;;;;;18.00;17.00;;;;;;;;111235;1241;53565;-53
2023/07/22 03:47:47;;;;;;;;;18.00;17.00;;;;;;;;111238;1243;44415;-55
2023/07/22 03:50:14;;;;;;;;;20.50;19.75;;;;;;;;111333;1240;50511;-56
2023/07/22 03:52:41;;;;;;;;;22.50;19.75;;;;;;;;111205;1238;49328;-55
2023/07/22 03:55:09;;;;;;;;;24.00;20.00;;;;;;;;111252;1240;54079;-54
2023/07/22 03:57:36;;;;;;;;;20.33;19.00;;;;;;;;111242;1243;45043;-53
2023/07/22 04:00:05;;;;;;;;;21.25;21.00;;;;;;;;111338;1239;49054;-56
2023/07/22 04:02:32;;;;;;;;;17.75;16.50;;;;;;;;111300;1239;48854;-57
2023/07/22 04:04:59;;;;;;;;;16.33;15.00;;;;;;;;111266;1240;53925;-54
2023/07/22 04:07:27;;;;;;;;;16.33;16.00;;;;;;;;111261;1242;44798;-54
2023/07/22 04:09:54;;;;;;;;;16.75;15.75;;;;;;;;111296;1243;49200;-56
2023/07/22 04:12:22;;;;;;;;;18.50;16.75;;;;;;;;111236;1240;48552;-57
2023/07/22 04:14:49;;;;;;;;;17.25;16.00;;;;;;;;111265;1243;54627;-57
2023/07/22 04:17:16;;;;;;;;;16.75;15.00;;;;;;;;111255;1239;44351;-57
2023/07/22 04:19:43;;;;;;;;;17.67;15.67;;;;;;;;111234;1242;49077;-55
2023/07/22 04:22:11;;;;;;;;;18.00;15.75;;;;;;;;111383;1238;49020;-57
2023/07/22 04:24:39;;;;;;;;;18.00;14.75;;;;;;;;111251;1240;53600;-55
2023/07/22 04:27:06;;;;;;;;;17.67;15.67;;;;;;;;111212;1239;45525;-57
2023/07/22 04:29:35;;;;;;;;;17.25;16.75;;;;;;;;111230;1244;49036;-55
2023/07/22 04:32:03;;;;;;;;;17.00;16.00;;;;;;;;111271;1242;48561;-55
2023/07/22 04:34:31;;;;;;;;;16.50;16.00;;;;;;;;111298;1243;54769;-52
2023/07/22 04:36:59;;;;;;;;;16.75;15.75;;;;;;;;111260;1241;44913;-54
2023/07/22 04:39:26;;;;;;;;;17.75;16.50;;;;;;;;111240;1243;49850;-56
2023/07/22 04:41:53;;;;;;;;;20.50;18.00;;;;;;;;111230;1240;49059;-56
2023/07/22 04:44:20;;;;;;;;;16.50;15.00;;;;;;;;111124;1240;53560;-56
2023/07/22 04:46:48;;;;;;;;;14.75;14.50;;;;;;;;111238;1238;45010;-57
2023/07/22 04:49:17;;;;;;;;;18.75;18.00;;;;;;;;111273;1243;50231;-57
2023/07/22 04:51:48;;;;;;;;;18.00;17.00;;;;;;;;111268;1242;48785;-56
2023/07/22 04:54:15;;;;;;;;;22.00;21.00;;;;;;;;111280;1239;53458;-57
2023/07/22 04:56:42;;;;;;;;;21.67;18.00;;;;;;;;111275;1241;44767;-57
2023/07/22 04:59:10;;;;;;;;;20.00;18.00;;;;;;;;111338;1239;49296;-56
2023/07/22 05:01:37;;;;;;;;;17.00;16.67;;;;;;;;111269;1245;48600;-57
2023/07/22 05:04:06;;;;;;;;;20.50;17.75;;;;;;;;111261;1238;53704;-57
2023/07/22 05:06:33;;;;;;;;;18.00;17.00;;;;;;;;111278;1244;44540;-57
2023/07/22 05:09:00;;;;;;;;;17.75;17.25;;;;;;;;111284;1243;49361;-57
2023/07/22 05:11:28;;;;;;;;;18.00;17.00;;;;;;;;111197;1240;49437;-57
2023/07/22 05:13:55;;;;;;;;;17.50;16.00;;;;;;;;111274;1243;54571;-57
2023/07/22 05:16:23;;;;;;;;;15.75;14.25;;;;;;;;111290;1240;44556;-57
2023/07/22 05:18:50;;;;;;;;;18.00;16.50;;;;;;;;111269;1241;49779;-57
2023/07/22 05:21:18;;;;;;;;;20.50;16.75;;;;;;;;111278;1240;49173;-58
2023/07/22 05:23:45;;;;;;;;;20.00;18.50;;;;;;;;111344;1243;54273;-57
2023/07/22 05:26:12;;;;;;;;;21.00;18.00;;;;;;;;111288;1243;44534;-57
2023/07/22 05:28:39;;;;;;;;;19.50;18.50;;;;;;;;111275;1239;48905;-57
2023/07/22 05:31:07;;;;;;;;;18.00;17.00;;;;;;;;111243;1243;49246;-56
2023/07/22 05:33:34;;;;;;;;;20.00;17.50;;;;;;;;111237;1243;54696;-57
2023/07/22 05:36:01;;;;;;;;;20.00;18.00;;;;;;;;111292;1240;44441;-57
2023/07/22 05:38:29;;;;;;;;;21.50;19.75;;;;;;;;111197;1240;49392;-57
2023/07/22 05:40:56;;;;;;;;;20.75;19.25;;;;;;;;111234;1242;50172;-56
2023/07/22 05:43:23;;;;;;;;;21.00;18.50;;;;;;;;111267;1241;54465;-56
2023/07/22 05:45:50;;;;;;;;;19.00;18.33;;;;;;;;111306;1242;44862;-56
2023/07/22 05:48:18;;;;;;;;;18.33;17.67;;;;;;;;111270;1242;49750;-57
2023/07/22 05:50:45;;;;;;;;;22.75;19.75;;;;;;;;111252;1239;48749;-56
2023/07/22 05:53:12;;;;;;;;;19.00;17.75;;;;;;;;111232;1240;53491;-56
2023/07/22 05:55:40;;;;;;;;;22.50;21.25;;;;;;;;111300;1239;45051;-57
2023/07/22 05:58:14;;;;;;;;;22.67;21.33;;;;;;;;111283;1244;49353;-56
2023/07/22 06:00:42;;;;;;;;;23.00;21.00;;;;;;;;111300;1241;48415;-57
2023/07/22 06:03:09;;;;;;;;;20.50;18.25;;;;;;;;111312;1243;54295;-56
2023/07/22 06:05:37;;;;;;;;;19.25;18.25;;;;;;;;111327;1243;44661;-56
2023/07/22 06:08:05;;;;;;;;;24.00;23.00;;;;;;;;111277;1240;49598;-57
2023/07/22 06:10:32;;;;;;;;;20.00;18.75;;;;;;;;111277;1240;49380;-58
2023/07/22 06:12:59;;;;;;;;;23.33;21.00;;;;;;;;111281;1243;54397;-57
2023/07/22 06:15:27;;;;;;;;;20.00;18.75;;;;;;;;111333;1239;44895;-58
2023/07/22 06:17:54;;;;;;;;;17.00;15.67;;;;;;;;111300;1242;49894;-58
2023/07/22 06:20:22;;;;;;;;;17.50;16.00;;;;;;;;111254;1242;48996;-58
2023/07/22 06:22:49;;;;;;;;;20.50;17.25;;;;;;;;111257;1240;54478;-57
2023/07/22 06:25:16;;;;;;;;;16.50;15.50;;;;;;;;111229;1240;45274;-58
2023/07/22 06:27:44;;;;;;;;;15.00;14.00;;;;;;;;111239;1243;49563;-59
2023/07/22 06:30:12;;;;;;;;;17.50;16.50;;;;;;;;111270;1238;49463;-59
2023/07/22 06:32:39;;;;;;;;;16.00;15.00;;;;;;;;111260;1240;53910;-58
2023/07/22 06:35:07;;;;;;;;;14.67;13.00;;;;;;;;111280;1243;44978;-56
2023/07/22 06:37:35;;;;;;;;;16.50;16.00;;;;;;;;111326;1243;50385;-59
2023/07/22 06:40:03;;;;;;;;;18.50;15.50;;;;;;;;111242;1243;49488;-58
2023/07/22 06:42:31;;;;;;;;;19.50;17.75;;;;;;;;111304;1239;54768;-57
2023/07/22 06:44:58;;;;;;;;;14.00;13.00;;;;;;;;111309;1243;45010;-56
2023/07/22 06:47:25;;;;;;;;;18.25;16.50;;;;;;;;111236;1240;49489;-57
2023/07/22 06:49:53;;;;;;;;;17.00;16.33;;;;;;;;111216;1238;48896;-57
2023/07/22 06:52:20;;;;;;;;;14.75;14.25;;;;;;;;111253;1243;54439;-56
2023/07/22 06:54:47;;;;;;;;;19.00;17.00;;;;;;;;111305;1238;45154;-56
2023/07/22 06:57:15;;;;;;;;;17.00;16.00;;;;;;;;111253;1239;50187;-57
2023/07/22 06:59:42;;;;;;;;;16.50;15.00;;;;;;;;111257;1239;49608;-58
2023/07/22 07:02:09;;;;;;;;;14.75;14.50;;;;;;;;111258;1240;54024;-57
2023/07/22 07:04:37;;;;;;;;;15.25;14.50;;;;;;;;111290;1238;45452;-55
2023/07/22 07:07:04;;;;;;;;;14.50;14.00;;;;;;;;111241;1239;50048;-57
2023/07/22 07:09:32;;;;;;;;;16.00;15.33;;;;;;;;111231;1243;49208;-57
2023/07/22 07:11:59;;;;;;;;;16.00;13.75;;;;;;;;111248;1238;53314;-57
2023/07/22 07:14:26;;;;;;;;;16.00;15.00;;;;;;;;111280;1240;44878;-56
2023/07/22 07:16:54;;;;;;;;;16.75;15.75;;;;;;;;111274;1238;50882;-58
2023/07/22 07:19:21;;;;;;;;;18.00;16.00;;;;;;;;111238;1241;48640;-57
2023/07/22 07:21:49;;;;;;;;;14.67;14.00;;;;;;;;111222;1239;53934;-58
2023/07/22 07:24:17;;;;;;;;;14.75;13.75;;;;;;;;111270;1243;45555;-56
2023/07/22 07:26:44;;;;;;;;;17.50;16.00;;;;;;;;111232;1242;49897;-58
2023/07/22 07:29:12;;;;;;;;;15.50;14.75;;;;;;;;111255;1243;50026;-58
2023/07/22 07:31:39;;;;;;;;;18.00;17.00;;;;;;;;111245;1242;54746;-57
2023/07/22 07:34:08;;;;;;;;;16.00;13.33;;;;;;;;111287;1243;44186;-56
2023/07/22 07:36:35;;;;;;;;;16.50;14.75;;;;;;;;111349;1243;49058;-56
2023/07/22 07:39:03;;;;;;;;;17.50;15.75;;;;;;;;111372;1240;49641;-56
2023/07/22 07:41:31;;;;;;;;;18.00;17.00;;;;;;;;111299;1242;53455;-56
2023/07/22 07:43:58;;;;;;;;;16.75;15.75;;;;;;;;111250;1241;44873;-56
2023/07/22 07:46:29;;;;;;;;;16.00;14.75;;;;;;;;111649;1243;49157;-56
2023/07/22 07:48:57;;;;;;;;;17.50;14.50;;;;;;;;111302;1243;49270;-56
2023/07/22 07:51:28;;;;;;;;;15.00;13.75;;;;;;;;111264;1240;54270;-56
2023/07/22 07:53:56;;;;;;;;;13.75;13.00;;;;;;;;111257;1243;44379;-56
2023/07/22 07:56:23;;;;;;;;;14.25;13.75;;;;;;;;111298;1240;49643;-58
2023/07/22 07:58:52;;;;;;;;;14.75;13.25;;;;;;;;111310;1242;48574;-58
2023/07/22 08:01:20;;;;;;;;;17.25;14.75;;;;;;;;111253;1242;54185;-58
2023/07/22 08:03:48;;;;;;;;;14.25;13.00;;;;;;;;111339;1240;44986;-56
2023/07/22 08:06:15;;;;;;;;;16.00;15.00;;;;;;;;111369;1243;49116;-57
2023/07/22 08:08:43;;;;;;;;;15.75;14.00;;;;;;;;111298;1243;49663;-57
2023/07/22 08:11:13;;;;;;;;;15.00;14.00;;;;;;;;111254;1240;54885;-57
2023/07/22 08:13:41;;;;;;;;;13.00;12.25;;;;;;;;111252;1241;44448;-58
2023/07/22 08:16:10;;;;;;;;;14.50;12.50;;;;;;;;111307;1240;50043;-56
2023/07/22 08:18:37;;;;;;;;;13.00;12.00;;;;;;;;111266;1239;49263;-57
2023/07/22 08:21:08;;;;;;;;;15.75;14.25;;;;;;;;111271;1241;54199;-57
2023/07/22 08:23:36;;;;;;;;;15.00;14.00;;;;;;;;111276;1243;44870;-58
2023/07/22 08:26:07;;;;;;;;;17.75;16.75;;;;;;;;111288;1240;48927;-56
2023/07/22 08:28:35;;;;;;;;;15.75;14.75;;;;;;;;111264;1243;48474;-57
2023/07/22 08:31:02;;;;;;;;;15.75;14.75;;;;;;;;111243;1242;54855;-57
2023/07/22 08:33:30;;;;;;;;;18.00;16.00;;;;;;;;111242;1243;44282;-57
2023/07/22 08:35:57;;;;;;;;;16.75;16.00;;;;;;;;111221;1240;49641;-58
2023/07/22 08:38:24;;;;;;;;;14.75;13.00;;;;;;;;111330;1239;49856;-57
2023/07/22 08:40:52;;;;;;;;;15.25;14.75;;;;;;;;111256;1244;54024;-58
2023/07/22 08:43:20;;;;;;;;;16.00;15.00;;;;;;;;111283;1242;44231;-59
2023/07/22 08:45:48;;;;;;;;;15.67;14.67;;;;;;;;111318;1243;49277;-57
2023/07/22 08:48:18;;;;;;;;;15.75;15.00;;;;;;;;111347;1238;49387;-57
2023/07/22 08:50:49;;;;;;;;;16.25;15.00;;;;;;;;111339;1240;53691;-58
2023/07/22 08:53:16;;;;;;;;;15.75;15.25;;;;;;;;111309;1238;45527;-58
2023/07/22 08:55:44;;;;;;;;;17.25;14.25;;;;;;;;111322;1240;50122;-58
2023/07/22 08:58:12;;;;;;;;;14.25;13.50;;;;;;;;111236;1240;48840;-57
2023/07/22 09:00:40;;;;;;;;;18.00;16.33;;;;;;;;111259;1243;53787;-57
2023/07/22 09:03:07;;;;;;;;;14.50;13.75;;;;;;;;111269;1240;45107;-55
2023/07/22 09:05:35;;;;;;;;;18.00;15.25;;;;;;;;111298;1242;49078;-58
2023/07/22 09:08:04;;;;;;;;;16.67;15.33;;;;;;;;111266;1243;48778;-57
2023/07/22 09:10:32;;;;;;;;;16.00;15.67;;;;;;;;111267;1243;53397;-58
2023/07/22 09:13:00;;;;;;;;;14.75;14.00;;;;;;;;111295;1239;44698;-57
2023/07/22 09:15:28;;;;;;;;;15.25;15.00;;;;;;;;111283;1241;50566;-57
2023/07/22 09:17:55;;;;;;;;;19.25;16.75;;;;;;;;111270;1243;48654;-58
2023/07/22 09:20:23;;;;;;;;;16.00;15.00;;;;;;;;111244;1244;54411;-57
2023/07/22 09:22:51;;;;;;;;;16.50;14.75;;;;;;;;111273;1241;44468;-57
2023/07/22 09:25:18;;;;;;;;;17.00;16.00;;;;;;;;111305;1244;50037;-58
2023/07/22 09:27:46;;;;;;;;;16.00;13.25;;;;;;;;111264;1241;48695;-57
2023/07/22 09:30:25;;;;;;;;;14.75;13.75;;;;;;;;111285;1240;54226;-57
2023/07/22 09:32:54;;;;;;;;;17.00;16.00;;;;;;;;111280;1241;45515;-57
2023/07/22 09:35:22;;;;;;;;;17.00;15.75;;;;;;;;111317;1239;50029;-57
2023/07/22 09:37:49;;;;;;;;;18.00;16.75;;;;;;;;111307;1242;49439;-56
2023/07/22 09:40:21;;;;;;;;;16.25;14.50;;;;;;;;111251;1239;53506;-56
2023/07/22 09:42:50;;;;;;;;;16.25;15.25;;;;;;;;111290;1243;44577;-58
2023/07/22 09:45:18;;;;;;;;;15.50;15.25;;;;;;;;111301;1243;49109;-58
2023/07/22 09:47:46;;;;;;;;;17.33;16.00;;;;;;;;111300;1238;49859;-57
2023/07/22 09:50:14;;;;;;;;;16.00;14.50;;;;;;;;111289;1239;53366;-58
2023/07/22 09:52:45;;;;;;;;;14.50;14.00;;;;;;;;111261;1240;45695;-57
2023/07/22 09:55:14;;;;;;;;;18.00;17.00;;;;;;;;111331;1239;49277;-56
2023/07/22 09:57:45;;;;;;;;;15.00;13.50;;;;;;;;111262;1243;48907;-57
2023/07/22 10:00:14;;;;;;;;;17.67;16.00;;;;;;;;111286;1242;53729;-58
2023/07/22 10:02:47;;;;;;;;;17.25;16.50;;;;;;;;111259;1239;45406;-58
2023/07/22 10:05:21;;;;;;;;;16.75;15.75;;;;;;;;111236;1241;49318;-57
2023/07/22 10:07:50;;;;;;;;;17.00;15.00;;;;;;;;111227;1241;48803;-57
2023/07/22 10:10:22;;;;;;;;;14.75;14.00;;;;;;;;111244;1243;54003;-61
2023/07/22 10:12:50;;;;;;;;;18.75;15.50;;;;;;;;111247;1244;44769;-57
2023/07/22 10:15:18;;;;;;;;;18.33;17.00;;;;;;;;111274;1239;49472;-57
2023/07/22 10:17:46;;;;;;;;;15.75;15.00;;;;;;;;111216;1242;48551;-57
2023/07/22 10:20:19;;;;;;;;;17.75;16.75;;;;;;;;111264;1240;54136;-58
2023/07/22 10:22:47;;;;;;;;;17.00;17.00;;;;;;;;111220;1243;45068;-58
2023/07/22 10:25:15;;;;;;;;;15.50;14.00;;;;;;;;111246;1241;49787;-57
2023/07/22 10:27:43;;;;;;;;;18.25;16.75;;;;;;;;110654;1242;688025;-59
2023/07/22 10:30:11;;;;;;;;;14.33;13.00;;;;;;;;111225;1238;53264;-57
2023/07/22 10:32:40;;;;;;;;;19.25;17.25;;;;;;;;111260;1238;44699;-58
2023/07/22 10:35:31;;;;;;;;;16.50;14.75;;;;;;;;111347;1241;49220;-58
2023/07/22 10:38:17;;;;;;;;;17.00;15.00;;;;;;;;111054;1243;49563;-58
2023/07/22 10:40:49;;;;;;;;;16.00;15.00;;;;;;;;111289;1243;54791;-58
2023/07/22 10:43:18;;;;;;;;;20.25;18.50;;;;;;;;111325;1245;44843;-59
2023/07/22 10:45:52;;;;;;;;;16.25;16.00;;;;;;;;111359;1238;49814;-58
2023/07/22 10:48:21;;;;;;;;;16.25;16.00;;;;;;;;111217;1243;48804;-57
2023/07/22 10:50:49;;;;;;;;;16.33;15.33;;;;;;;;111211;1243;54879;-57
2023/07/22 10:53:30;;;;;;;;;18.00;16.00;;;;;;;;111190;1244;45165;-57
2023/07/22 10:56:14;;;;;;;;;17.00;17.00;;;;;;;;111243;1243;49992;-58
2023/07/22 10:58:44;;;;;;;;;16.00;15.00;;;;;;;;111278;1242;49055;-58
2023/07/22 11:01:24;;;;;;;;;16.25;15.00;;;;;;;;111200;1240;53545;-58
2023/07/22 11:04:06;;;;;;;;;15.00;14.00;;;;;;;;111214;1241;44431;-58
2023/07/22 11:06:34;;;;;;;;;16.25;16.00;;;;;;;;111205;1238;49308;-56
2023/07/22 11:09:03;;;;;;;;;15.50;14.75;;;;;;;;111270;1243;49981;-59
2023/07/22 11:11:37;;;;;;;;;15.00;14.33;;;;;;;;111188;1244;54450;-58
2023/07/22 11:14:17;;;;;;;;;18.00;15.00;;;;;;;;111272;1243;44730;-57
2023/07/22 11:16:45;;;;;;;;;16.25;15.75;;;;;;;;111264;1240;49893;-57
2023/07/22 11:19:14;;;;;;;;;15.25;14.50;;;;;;;;111280;1239;48605;-59
2023/07/22 11:21:45;;;;;;;;;16.00;14.75;;;;;;;;111281;1243;53344;-57
2023/07/22 11:24:13;;;;;;;;;18.25;16.75;;;;;;;;111283;1243;44832;-55
2023/07/22 11:26:41;;;;;;;;;17.75;16.75;;;;;;;;111244;1244;50104;-57
2023/07/22 11:29:09;;;;;;;;;15.25;14.00;;;;;;;;111264;1243;49019;-56
2023/07/22 11:31:37;;;;;;;;;16.50;16.00;;;;;;;;111248;1241;53894;-58
2023/07/22 11:34:05;;;;;;;;;16.67;15.33;;;;;;;;111299;1243;44863;-57
2023/07/22 11:36:32;;;;;;;;;16.67;16.33;;;;;;;;111246;1240;50037;-57
2023/07/22 11:39:03;;;;;;;;;14.33;14.00;;;;;;;;111270;1240;48617;-56
2023/07/22 11:41:31;;;;;;;;;16.50;15.50;;;;;;;;111285;1240;53978;-57
2023/07/22 11:44:00;;;;;;;;;14.25;13.00;;;;;;;;111246;1243;44359;-58
2023/07/22 11:46:28;;;;;;;;;16.00;14.75;;;;;;;;111229;1238;50136;-58
2023/07/22 11:48:55;;;;;;;;;17.33;15.67;;;;;;;;111260;1240;49080;-57
2023/07/22 11:51:24;;;;;;;;;15.25;14.00;;;;;;;;111216;1240;53844;-57
2023/07/22 11:53:52;;;;;;;;;15.75;14.25;;;;;;;;111218;1243;45256;-57
2023/07/22 11:56:19;;;;;;;;;15.25;14.25;;;;;;;;111307;1241;48910;-56
2023/07/22 11:58:53;;;;;;;;;14.50;13.75;;;;;;;;111227;1243;49052;-56
2023/07/22 12:01:21;;;;;;;;;13.75;13.00;;;;;;;;111248;1238;54290;-58
2023/07/22 12:03:49;;;;;;;;;13.50;12.25;;;;;;;;111275;1243;44401;-58
2023/07/22 12:06:16;;;;;;;;;15.25;13.25;;;;;;;;111227;1243;48904;-58
2023/07/22 12:08:46;;;;;;;;;14.00;12.75;;;;;;;;111229;1243;49576;-58
2023/07/22 12:11:20;;;;;;;;;14.00;13.67;;;;;;;;111289;1241;54916;-57
2023/07/22 12:13:50;;;;;;;;;13.00;13.00;;;;;;;;111285;1238;45327;-58
2023/07/22 12:16:22;;;;;;;;;16.25;15.00;;;;;;;;111330;1240;49282;-57
2023/07/22 12:18:49;;;;;;;;;13.00;12.50;;;;;;;;111258;1242;49053;-57
2023/07/22 12:21:17;;;;;;;;;14.00;14.00;;;;;;;;111262;1241;53954;-57
2023/07/22 12:23:45;;;;;;;;;14.25;13.00;;;;;;;;111284;1243;44657;-57
2023/07/22 12:26:13;;;;;;;;;14.00;13.25;;;;;;;;111283;1242;49437;-57
2023/07/22 12:28:40;;;;;;;;;15.75;14.00;;;;;;;;111298;1243;50389;-56
2023/07/22 12:31:09;;;;;;;;;18.00;17.00;;;;;;;;111269;1243;54200;-57
2023/07/22 12:33:36;;;;;;;;;14.00;13.25;;;;;;;;111303;1238;44356;-57
2023/07/22 12:36:04;;;;;;;;;15.75;14.25;;;;;;;;111252;1238;50058;-57
2023/07/22 12:38:32;;;;;;;;;16.00;15.00;;;;;;;;111305;1239;50247;-57
2023/07/22 12:41:00;;;;;;;;;14.00;12.67;;;;;;;;111263;1241;55049;-56
2023/07/22 12:43:27;;;;;;;;;14.67;14.33;;;;;;;;111200;1243;45233;-57
2023/07/22 12:45:55;;;;;;;;;14.00;14.00;;;;;;;;111252;1239;49700;-57
2023/07/22 12:48:24;;;;;;;;;14.75;14.25;;;;;;;;111246;1242;50139;-57
2023/07/22 12:50:51;;;;;;;;;15.75;14.25;;;;;;;;111228;1243;53468;-57
2023/07/22 12:53:19;;;;;;;;;17.00;15.00;;;;;;;;111271;1243;44375;-57
2023/07/22 12:55:46;;;;;;;;;16.00;14.25;;;;;;;;111286;1240;48898;-57
2023/07/22 12:58:14;;;;;;;;;14.00;13.00;;;;;;;;111297;1238;49238;-56
2023/07/22 13:00:41;;;;;;;;;15.50;13.50;;;;;;;;111259;1243;54985;-57
2023/07/22 13:03:08;;;;;;;;;16.00;14.75;;;;;;;;111267;1238;44546;-57
2023/07/22 13:05:36;;;;;;;;;13.25;13.00;;;;;;;;111220;1243;49346;-56
2023/07/22 13:08:03;;;;;;;;;13.00;12.67;;;;;;;;111292;1244;48814;-57
2023/07/22 13:10:33;;;;;;;;;13.50;13.00;;;;;;;;111236;1242;53742;-58
2023/07/22 13:13:00;;;;;;;;;15.00;13.75;;;;;;;;111264;1243;45049;-59
2023/07/22 13:15:27;;;;;;;;;13.00;12.00;;;;;;;;111311;1243;49495;-57
2023/07/22 13:17:55;;;;;;;;;14.50;14.00;;;;;;;;111279;1240;49075;-58
2023/07/22 13:20:22;;;;;;;;;13.75;13.25;;;;;;;;111253;1239;53909;-58
2023/07/22 13:22:49;;;;;;;;;15.00;14.75;;;;;;;;111250;1243;44355;-57
2023/07/22 13:25:17;;;;;;;;;17.25;15.00;;;;;;;;111348;1243;49012;-58
2023/07/22 13:27:44;;;;;;;;;17.25;15.00;;;;;;;;111275;1239;49150;-57
2023/07/22 13:30:11;;;;;;;;;14.00;13.00;;;;;;;;111234;1239;53292;-58
2023/07/22 13:32:39;;;;;;;;;15.50;14.75;;;;;;;;111240;1243;45101;-56
2023/07/22 13:35:07;;;;;;;;;15.33;14.00;;;;;;;;111289;1241;49852;-58
2023/07/22 13:37:35;;;;;;;;;14.00;13.50;;;;;;;;111242;1240;49059;-58
2023/07/22 13:40:05;;;;;;;;;14.33;14.00;;;;;;;;111249;1241;53509;-56
2023/07/22 13:42:32;;;;;;;;;16.25;14.25;;;;;;;;111267;1243;44245;-57
2023/07/22 13:44:59;;;;;;;;;15.75;14.75;;;;;;;;111301;1243;49650;-57
2023/07/22 13:47:26;;;;;;;;;15.00;14.00;;;;;;;;111239;1243;48640;-56
2023/07/22 13:49:54;;;;;;;;;14.00;13.00;;;;;;;;111258;1239;53251;-57
2023/07/22 13:52:21;;;;;;;;;16.25;15.00;;;;;;;;111265;1242;44309;-57
2023/07/22 13:54:48;;;;;;;;;15.00;14.00;;;;;;;;111287;1239;49522;-56
2023/07/22 13:57:16;;;;;;;;;16.75;14.00;;;;;;;;111264;1240;48693;-57
2023/07/22 13:59:43;;;;;;;;;16.75;15.75;;;;;;;;111230;1240;53997;-57
2023/07/22 14:02:10;;;;;;;;;15.25;14.00;;;;;;;;111239;1244;44267;-57
2023/07/22 14:04:38;;;;;;;;;16.00;15.00;;;;;;;;111265;1239;49509;-57
2023/07/22 14:07:06;;;;;;;;;16.67;15.67;;;;;;;;111288;1239;49732;-56
2023/07/22 14:09:33;;;;;;;;;15.33;13.33;;;;;;;;111321;1240;54345;-57